首页
METAR-TAF:

METAR-TAF

机场 :

琼斯伯勒, 阿肯色州, 美国

纬度: 35-50-14N, 经度: 090-38-35W, 海拔: 79米

当前天气观测

该预报发布于13分钟前的11:53 UTC
风速5节,风向西
温度 -2°C
湿度 80%
气压 1026 hPa
能見度: 16.1公里
天空无云

METAR: KJBR 271153Z AUTO 28005KT 10SM CLR M02/M05 A3030 RMK AO2 SLP262 T10171050 10000 21017 53001

时间: 06:06 (12:06 UTC)

预报

该预报发布于46分钟前的11:20 UTC
预报有效从27日的 12点(UTC)到 28日的 12点(UTC)
风速5节,风向西
能見度: 10公里
天空无云
从 27日的 1500点(UTC)
风速9节,风向西转西南
能見度: 10公里
天空无云
从 27日的 1800点(UTC)
风速12节,风向西转西南,有时为20节阵风
能見度: 10公里
天空无云
从 28日的 0100点(UTC)
风速5节,风向西南
能見度: 10公里
多云层高于10000英尺

TAF: KJBR 271120Z 2712/2812 28005KT P6SM SKC FM271500 25009KT P6SM SKC FM271800 24012G20KT P6SM SKC FM280100 22005KT P6SM BKN100

超过4000个机场的气象观测和天气预报(METAR&TAF报告)。

可查询的气象台以黄色和红色小点在地图上表示。

将鼠标移到小点上方,可查看气象台名称。

然后点击查看天气观测和预报。

如需切换地图:点击带黑十字的绿色按钮放大地图;点击带横线的绿色按钮缩小地图;或者点击绿色箭头查看邻近地区的地图。


METAR-TAF: